createdAt,value
2018-05-02T00:01:38.048Z,9.57
2018-05-02T00:04:05.988Z,11.67
2018-05-02T00:06:33.546Z,12.60
2018-05-02T00:09:01.166Z,11.47
2018-05-02T00:11:28.799Z,11.10
2018-05-02T00:13:56.432Z,9.40
2018-05-02T00:16:23.971Z,8.70
2018-05-02T00:18:51.788Z,9.03
2018-05-02T00:21:20.236Z,10.50
2018-05-02T00:23:47.776Z,8.57
2018-05-02T00:26:15.412Z,7.37
2018-05-02T00:28:43.118Z,9.13
2018-05-02T00:31:10.910Z,9.13
2018-05-02T00:33:39.261Z,13.00
2018-05-02T00:36:07.216Z,14.67
2018-05-02T00:38:34.756Z,18.20
2018-05-02T00:41:02.527Z,19.30
2018-05-02T00:43:30.065Z,22.63
2018-05-02T00:45:57.812Z,19.27
2018-05-02T00:48:25.402Z,15.13
2018-05-02T00:50:53.135Z,12.53
2018-05-02T00:53:21.053Z,11.90
2018-05-02T00:55:48.666Z,15.60
2018-05-02T00:58:16.374Z,10.20
2018-05-02T01:00:43.925Z,14.13
2018-05-02T01:03:11.940Z,11.73
2018-05-02T01:05:40.375Z,11.03
2018-05-02T01:08:07.932Z,12.63
2018-05-02T01:10:35.519Z,10.87
2018-05-02T01:13:03.443Z,12.87
2018-05-02T01:15:31.016Z,11.53
2018-05-02T01:17:58.605Z,8.53
2018-05-02T01:20:26.178Z,10.60
2018-05-02T01:22:54.487Z,8.83
2018-05-02T01:25:22.284Z,6.37
2018-05-02T01:27:50.361Z,7.33
2018-05-02T01:30:18.195Z,7.03
2018-05-02T01:32:45.963Z,6.33
2018-05-02T01:35:13.755Z,5.37
2018-05-02T01:37:42.202Z,8.70
2018-05-02T01:40:09.943Z,8.77
2018-05-02T01:42:37.744Z,10.03
2018-05-02T01:45:05.756Z,16.93
2018-05-02T01:47:33.488Z,24.07
2018-05-02T01:50:01.287Z,20.83
2018-05-02T01:52:29.211Z,21.67
2018-05-02T01:54:57.128Z,22.20
2018-05-02T01:57:25.442Z,20.97
2018-05-02T01:59:53.371Z,8.20
2018-05-02T02:02:20.961Z,11.27
2018-05-02T02:04:48.508Z,14.00
2018-05-02T02:07:16.152Z,21.37
2018-05-02T02:09:44.066Z,21.30
2018-05-02T02:12:11.610Z,21.40
2018-05-02T02:14:39.343Z,17.47
2018-05-02T02:17:07.312Z,15.30
2018-05-02T02:19:34.864Z,14.03
2018-05-02T02:22:02.448Z,15.27
2018-05-02T02:24:30.080Z,13.43
2018-05-02T02:26:57.639Z,12.77
2018-05-02T02:29:25.436Z,14.90
2018-05-02T02:31:53.205Z,12.13
2018-05-02T02:34:20.767Z,11.97
2018-05-02T02:36:48.460Z,10.10
2018-05-02T02:39:16.257Z,10.80
2018-05-02T02:41:44.080Z,12.70
2018-05-02T02:44:11.668Z,14.33
2018-05-02T02:46:39.644Z,19.67
2018-05-02T02:49:07.949Z,22.30
2018-05-02T02:51:35.500Z,19.23
2018-05-02T02:54:03.261Z,15.90
2018-05-02T02:56:31.056Z,16.30
2018-05-02T02:58:58.592Z,12.77
2018-05-02T03:01:26.377Z,14.33
2018-05-02T03:03:54.632Z,15.90
2018-05-02T03:06:22.172Z,11.77
2018-05-02T03:08:50.224Z,14.33
2018-05-02T03:11:18.548Z,14.00
2018-05-02T03:13:46.137Z,14.33
2018-05-02T03:16:13.992Z,16.83
2018-05-02T03:18:42.651Z,14.07
2018-05-02T03:21:10.534Z,13.80
2018-05-02T03:23:38.129Z,15.53
2018-05-02T03:26:05.696Z,17.17
2018-05-02T03:28:34.200Z,15.67
2018-05-02T03:31:02.200Z,15.50
2018-05-02T03:33:30.272Z,12.50
2018-05-02T03:35:58.087Z,14.07
2018-05-02T03:38:25.687Z,16.10
2018-05-02T03:40:53.234Z,10.97
2018-05-02T03:43:20.803Z,14.13
2018-05-02T03:45:48.545Z,12.93
2018-05-02T03:48:16.089Z,13.67
2018-05-02T03:50:43.848Z,11.37
2018-05-02T03:53:11.437Z,16.97
2018-05-02T03:55:39.165Z,18.10
2018-05-02T03:58:07.088Z,17.23
2018-05-02T04:00:46.618Z,14.47
2018-05-02T04:03:26.255Z,17.60
2018-05-02T04:06:05.767Z,37.83
2018-05-02T04:08:33.635Z,22.50
2018-05-02T04:11:01.439Z,22.07
2018-05-02T04:13:30.237Z,23.73
2018-05-02T04:15:57.795Z,23.83
2018-05-02T04:18:26.119Z,24.80
2018-05-02T04:20:54.012Z,26.23
2018-05-02T04:23:21.588Z,31.03
2018-05-02T04:25:49.244Z,33.67
2018-05-02T04:28:17.089Z,41.17
2018-05-02T04:30:44.716Z,43.47
2018-05-02T04:33:12.404Z,42.97
2018-05-02T04:35:39.999Z,38.50
2018-05-02T04:38:07.736Z,37.60
2018-05-02T04:40:35.656Z,41.10
2018-05-02T04:43:04.152Z,29.87
2018-05-02T04:45:31.967Z,20.93
2018-05-02T04:47:59.544Z,18.67
2018-05-02T04:50:27.173Z,19.23
2018-05-02T04:52:55.097Z,16.40
2018-05-02T04:55:22.838Z,12.90
2018-05-02T04:57:51.337Z,16.13
2018-05-02T05:00:18.896Z,24.47
2018-05-02T05:02:46.620Z,18.33
2018-05-02T05:05:14.435Z,21.50
2018-05-02T05:07:41.976Z,11.07
2018-05-02T05:10:10.388Z,12.53
2018-05-02T05:12:38.323Z,9.47
2018-05-02T05:15:06.928Z,9.80
2018-05-02T05:17:34.479Z,11.93
2018-05-02T05:20:02.445Z,13.40
2018-05-02T05:22:30.155Z,13.23
2018-05-02T05:24:57.972Z,14.10
2018-05-02T05:27:25.594Z,10.73
2018-05-02T05:29:53.149Z,12.87
2018-05-02T05:32:20.708Z,10.90
2018-05-02T05:34:48.439Z,10.80
2018-05-02T05:37:15.999Z,12.70
2018-05-02T05:39:43.826Z,13.73
2018-05-02T05:42:11.705Z,16.87
2018-05-02T05:44:39.273Z,14.57
2018-05-02T05:47:07.144Z,14.30
2018-05-02T05:49:35.121Z,15.67
2018-05-02T05:52:02.671Z,16.77
2018-05-02T05:54:30.441Z,12.87
2018-05-02T05:56:58.257Z,13.40
2018-05-02T05:59:25.844Z,16.47
2018-05-02T06:01:53.619Z,18.20
2018-05-02T06:04:21.236Z,26.73
2018-05-02T06:06:50.357Z,26.63
2018-05-02T06:09:18.503Z,14.07
2018-05-02T06:11:47.233Z,12.37
2018-05-02T06:14:14.792Z,11.07
2018-05-02T06:16:42.379Z,11.70
2018-05-02T06:19:09.983Z,13.83
2018-05-02T06:21:37.789Z,8.57
2018-05-02T06:24:05.784Z,7.57
2018-05-02T06:26:33.391Z,16.90
2018-05-02T06:29:01.137Z,19.07
2018-05-02T06:31:28.708Z,18.80
2018-05-02T06:33:56.511Z,37.63
2018-05-02T06:36:24.329Z,23.20
2018-05-02T06:38:52.257Z,24.63
2018-05-02T06:41:20.109Z,18.60
2018-05-02T06:43:48.136Z,15.93
2018-05-02T06:46:15.692Z,17.13
2018-05-02T06:48:43.301Z,16.83
2018-05-02T06:51:10.953Z,19.17
2018-05-02T06:53:38.500Z,19.97
2018-05-02T06:56:06.293Z,11.60
2018-05-02T06:58:33.846Z,10.80
2018-05-02T07:01:03.001Z,10.43
2018-05-02T07:03:31.120Z,10.20
2018-05-02T07:05:58.689Z,9.33
2018-05-02T07:08:26.393Z,9.20
2018-05-02T07:10:54.132Z,10.80
2018-05-02T07:13:22.456Z,7.40
2018-05-02T07:15:50.238Z,9.43
2018-05-02T07:18:17.846Z,10.40
2018-05-02T07:20:45.536Z,10.10
2018-05-02T07:23:13.086Z,8.30
2018-05-02T07:25:40.718Z,9.53
2018-05-02T07:28:08.275Z,11.80
2018-05-02T07:30:35.919Z,15.33
2018-05-02T07:33:03.549Z,12.13
2018-05-02T07:35:31.080Z,12.17
2018-05-02T07:37:58.641Z,11.90
2018-05-02T07:40:26.224Z,14.17
2018-05-02T07:42:53.785Z,20.07
2018-05-02T07:45:21.493Z,16.20
2018-05-02T07:47:49.192Z,13.90
2018-05-02T07:50:16.839Z,16.10
2018-05-02T07:52:44.398Z,15.07
2018-05-02T07:55:12.000Z,38.73
2018-05-02T07:57:39.628Z,23.43
2018-05-02T08:00:07.282Z,16.17
2018-05-02T08:02:34.882Z,18.30
2018-05-02T08:05:02.651Z,18.80
2018-05-02T08:07:30.211Z,21.50
2018-05-02T08:09:58.002Z,15.50
2018-05-02T08:12:25.784Z,19.63
2018-05-02T08:14:53.332Z,17.77
2018-05-02T08:17:20.919Z,19.00
2018-05-02T08:19:48.484Z,14.40
2018-05-02T08:22:16.433Z,20.37
2018-05-02T08:24:44.027Z,16.27
2018-05-02T08:27:11.592Z,19.30
2018-05-02T08:29:39.155Z,15.93
2018-05-02T08:32:06.903Z,19.43
2018-05-02T08:34:34.548Z,16.80
2018-05-02T08:37:02.173Z,18.90
2018-05-02T08:39:30.108Z,20.07
2018-05-02T08:41:57.657Z,22.20
2018-05-02T08:44:26.719Z,18.37
2018-05-02T08:46:54.313Z,20.57
2018-05-02T08:49:21.860Z,16.70
2018-05-02T08:51:49.700Z,14.33
2018-05-02T08:54:17.528Z,14.73
2018-05-02T08:56:45.108Z,17.83
2018-05-02T08:59:12.688Z,19.27
2018-05-02T09:01:40.536Z,21.57
2018-05-02T09:04:08.109Z,16.30
2018-05-02T09:06:35.749Z,21.97
2018-05-02T09:09:03.657Z,21.03
2018-05-02T09:11:31.696Z,20.30
2018-05-02T09:13:59.404Z,19.10
2018-05-02T09:16:26.998Z,17.90
2018-05-02T09:18:54.563Z,24.10
2018-05-02T09:21:22.507Z,14.90
2018-05-02T09:23:50.114Z,15.60
2018-05-02T09:26:17.761Z,12.63
2018-05-02T09:28:45.366Z,16.13
2018-05-02T09:31:12.967Z,14.53
2018-05-02T09:33:40.529Z,11.53
2018-05-02T09:36:08.125Z,11.87
2018-05-02T09:38:35.687Z,14.57
2018-05-02T09:41:03.422Z,16.10
2018-05-02T09:43:31.408Z,11.03
2018-05-02T09:45:59.128Z,10.23
2018-05-02T09:48:26.693Z,12.53
2018-05-02T09:50:54.422Z,11.53
2018-05-02T09:53:21.968Z,13.73
2018-05-02T09:55:49.526Z,11.83
2018-05-02T09:58:17.131Z,13.13
2018-05-02T10:00:44.697Z,12.53
2018-05-02T10:03:12.406Z,14.23
2018-05-02T10:05:39.998Z,14.23
2018-05-02T10:08:07.552Z,15.47
2018-05-02T10:10:35.868Z,13.00
2018-05-02T10:13:03.709Z,15.00
2018-05-02T10:15:31.304Z,15.30
2018-05-02T10:17:58.856Z,13.00
2018-05-02T10:20:26.457Z,11.83
2018-05-02T10:22:54.779Z,10.70
2018-05-02T10:25:22.324Z,13.57
2018-05-02T10:27:49.901Z,14.53
2018-05-02T10:30:17.466Z,10.73
2018-05-02T10:32:45.286Z,10.07
2018-05-02T10:35:13.020Z,9.30
2018-05-02T10:37:40.822Z,9.73
2018-05-02T10:40:08.369Z,9.97
2018-05-02T10:42:36.818Z,8.80
2018-05-02T10:45:04.457Z,11.80
2018-05-02T10:47:32.260Z,11.27
2018-05-02T10:50:00.044Z,12.33
2018-05-02T10:52:28.363Z,7.80
2018-05-02T10:54:55.916Z,11.70
2018-05-02T10:57:23.504Z,12.67
2018-05-02T10:59:51.048Z,12.87
2018-05-02T11:02:18.714Z,11.87
2018-05-02T11:04:46.303Z,12.47
2018-05-02T11:07:13.886Z,11.10
2018-05-02T11:09:41.718Z,11.93
2018-05-02T11:12:10.124Z,9.60
2018-05-02T11:14:37.979Z,9.03
2018-05-02T11:17:05.541Z,12.23
2018-05-02T11:19:33.924Z,10.07
2018-05-02T11:22:01.562Z,8.83
2018-05-02T11:24:29.086Z,7.63
2018-05-02T11:26:56.687Z,11.23
2018-05-02T11:29:24.452Z,11.20
2018-05-02T11:31:52.768Z,9.97
2018-05-02T11:34:20.549Z,10.27
2018-05-02T11:36:48.093Z,7.63
2018-05-02T11:39:15.752Z,6.53
2018-05-02T11:41:43.329Z,8.17
2018-05-02T11:44:10.876Z,9.07
2018-05-02T11:46:38.609Z,7.50
2018-05-02T11:49:06.409Z,7.50
2018-05-02T11:51:33.993Z,8.97
2018-05-02T11:54:01.574Z,4.80
2018-05-02T11:56:29.152Z,6.23
2018-05-02T11:58:56.760Z,7.47
2018-05-02T12:01:25.112Z,6.20
2018-05-02T12:03:52.714Z,6.67
2018-05-02T12:06:21.032Z,7.13
2018-05-02T12:08:48.811Z,7.83
2018-05-02T12:11:17.195Z,6.53
2018-05-02T12:13:44.795Z,7.03
2018-05-02T12:16:13.618Z,5.20
2018-05-02T12:18:41.358Z,6.50
2018-05-02T12:21:09.669Z,8.33
2018-05-02T12:23:37.243Z,10.37
2018-05-02T12:26:04.824Z,8.03
2018-05-02T12:28:32.644Z,11.33
2018-05-02T12:31:00.193Z,9.87
2018-05-02T12:33:27.957Z,10.80
2018-05-02T12:35:55.533Z,6.68
2018-05-02T12:38:23.457Z,11.43
2018-05-02T12:40:51.286Z,10.65
2018-05-02T12:43:18.895Z,9.60
2018-05-02T12:45:46.628Z,8.55
2018-05-02T12:48:14.213Z,11.02
2018-05-02T12:50:41.921Z,8.05
2018-05-02T12:53:09.688Z,10.90
2018-05-02T12:55:37.523Z,10.88
2018-05-02T12:58:05.122Z,10.40
2018-05-02T13:00:32.884Z,12.68
2018-05-02T13:03:00.464Z,11.25
2018-05-02T13:05:28.472Z,11.98
2018-05-02T13:07:56.021Z,17.75
2018-05-02T13:10:23.612Z,10.15
2018-05-02T13:12:51.553Z,12.00
2018-05-02T13:15:19.277Z,11.35
2018-05-02T13:17:47.325Z,13.55
2018-05-02T13:20:14.880Z,13.13
2018-05-02T13:22:42.509Z,9.48
2018-05-02T13:25:10.564Z,14.32
2018-05-02T13:27:38.391Z,15.70
2018-05-02T13:30:05.955Z,12.73
2018-05-02T13:32:33.744Z,11.12
2018-05-02T13:35:02.196Z,16.85
2018-05-02T13:37:29.955Z,14.20
2018-05-02T13:39:57.556Z,11.80
2018-05-02T13:42:25.113Z,15.60
2018-05-02T13:44:52.694Z,10.93
2018-05-02T13:47:20.288Z,13.48
2018-05-02T13:49:47.849Z,12.40
2018-05-02T13:52:15.398Z,10.65
2018-05-02T13:54:43.145Z,14.10
2018-05-02T13:57:11.283Z,11.20
2018-05-02T13:59:39.023Z,12.88
2018-05-02T14:02:07.486Z,14.85
2018-05-02T14:04:35.289Z,10.95
2018-05-02T14:07:02.839Z,12.25
2018-05-02T14:09:30.721Z,12.60
2018-05-02T14:11:58.277Z,12.90
2018-05-02T14:14:25.844Z,15.95
2018-05-02T14:16:53.459Z,14.47
2018-05-02T14:19:21.342Z,15.52
2018-05-02T14:21:48.917Z,12.23
2018-05-02T14:24:16.713Z,15.10
2018-05-02T14:26:44.928Z,11.63
2018-05-02T14:29:12.499Z,21.05
2018-05-02T14:31:40.569Z,14.20
2018-05-02T14:34:08.480Z,16.85
2018-05-02T14:36:36.037Z,19.62
2018-05-02T14:39:04.084Z,14.95
2018-05-02T14:41:31.968Z,17.75
2018-05-02T14:43:59.540Z,17.50
2018-05-02T14:46:27.448Z,13.38
2018-05-02T14:48:55.929Z,14.05
2018-05-02T14:51:24.542Z,13.90
2018-05-02T14:53:52.184Z,14.75
2018-05-02T14:56:19.740Z,13.48
2018-05-02T14:58:48.194Z,11.73
2018-05-02T15:01:15.994Z,11.82
2018-05-02T15:03:43.601Z,14.87
2018-05-02T15:06:11.291Z,16.30
2018-05-02T15:08:39.147Z,14.98
2018-05-02T15:11:06.696Z,20.05
2018-05-02T15:13:34.353Z,13.80
2018-05-02T15:16:01.938Z,10.50
2018-05-02T15:18:29.672Z,8.38
2018-05-02T15:20:57.511Z,13.50
2018-05-02T15:23:25.402Z,15.23
2018-05-02T15:25:52.956Z,13.57
2018-05-02T15:28:20.505Z,12.40
2018-05-02T15:30:48.568Z,14.43
2018-05-02T15:33:16.418Z,15.52
2018-05-02T15:35:43.995Z,17.65
2018-05-02T15:38:11.597Z,11.15
2018-05-02T15:40:39.305Z,10.95
2018-05-02T15:43:07.612Z,35.50
2018-05-02T15:45:35.165Z,11.55
2018-05-02T15:48:02.729Z,11.95
2018-05-02T15:50:30.323Z,13.27
2018-05-02T15:52:59.133Z,14.60
2018-05-02T15:55:26.685Z,12.25
2018-05-02T15:57:54.594Z,14.00
2018-05-02T16:00:22.155Z,11.10
2018-05-02T16:02:49.836Z,12.35
2018-05-02T16:05:17.443Z,63.50
2018-05-02T16:07:44.998Z,28.45
2018-05-02T16:10:12.575Z,20.47
2018-05-02T16:12:40.397Z,24.13
2018-05-02T16:15:08.307Z,19.12
2018-05-02T16:17:36.063Z,17.77
2018-05-02T16:20:04.090Z,17.83
2018-05-02T16:22:32.724Z,16.63
2018-05-02T16:25:00.295Z,15.65
2018-05-02T16:27:28.071Z,16.00
2018-05-02T16:29:55.859Z,17.70
2018-05-02T16:32:23.434Z,17.63
2018-05-02T16:34:51.579Z,32.27
2018-05-02T16:37:19.219Z,33.70
2018-05-02T16:39:46.817Z,44.07
2018-05-02T16:42:15.226Z,29.83
2018-05-02T16:44:42.795Z,30.77
2018-05-02T16:47:10.357Z,40.97
2018-05-02T16:49:37.986Z,29.07
2018-05-02T16:52:06.092Z,25.33
2018-05-02T16:54:33.792Z,21.50
2018-05-02T16:57:01.437Z,18.87
2018-05-02T16:59:28.996Z,17.20
2018-05-02T17:01:56.570Z,14.40
2018-05-02T17:04:24.684Z,16.43
2018-05-02T17:06:52.997Z,19.73
2018-05-02T17:09:20.968Z,17.07
2018-05-02T17:11:48.604Z,28.83
2018-05-02T17:14:16.313Z,30.37
2018-05-02T17:16:44.359Z,29.53
2018-05-02T17:19:11.994Z,37.63
2018-05-02T17:21:39.650Z,28.03
2018-05-02T17:24:07.416Z,26.83
2018-05-02T17:26:35.114Z,30.57
2018-05-02T17:29:03.220Z,34.17
2018-05-02T17:31:30.797Z,64.50
2018-05-02T17:33:58.902Z,64.13
2018-05-02T17:36:26.831Z,26.20
2018-05-02T17:38:54.719Z,24.70
2018-05-02T17:41:22.311Z,37.30
2018-05-02T17:43:49.904Z,27.57
2018-05-02T17:46:17.702Z,25.37
2018-05-02T17:48:45.571Z,36.60
2018-05-02T17:51:13.132Z,27.87
2018-05-02T17:53:40.785Z,31.37
2018-05-02T17:56:08.570Z,35.37
2018-05-02T17:58:36.312Z,35.83
2018-05-02T18:01:03.996Z,48.50
2018-05-02T18:03:32.047Z,48.83
2018-05-02T18:06:00.090Z,37.97
2018-05-02T18:08:27.653Z,42.53
2018-05-02T18:10:55.448Z,40.27
2018-05-02T18:13:23.003Z,40.97
2018-05-02T18:15:50.694Z,42.23
2018-05-02T18:18:18.586Z,41.63
2018-05-02T18:20:46.946Z,36.23
2018-05-02T18:23:14.562Z,44.27
2018-05-02T18:25:42.439Z,40.33
2018-05-02T18:28:10.261Z,39.93
2018-05-02T18:30:38.598Z,35.27
2018-05-02T18:33:06.455Z,34.13
2018-05-02T18:35:34.329Z,32.30
2018-05-02T18:38:01.948Z,32.60
2018-05-02T18:40:29.624Z,32.03
2018-05-02T18:42:57.420Z,29.57
2018-05-02T18:45:25.018Z,27.33
2018-05-02T18:47:52.945Z,27.60
2018-05-02T18:50:20.577Z,29.53
2018-05-02T18:52:48.344Z,33.93
2018-05-02T18:55:16.511Z,32.67
2018-05-02T18:57:44.146Z,37.17
2018-05-02T19:00:11.742Z,32.63
2018-05-02T19:02:39.695Z,31.77
2018-05-02T19:05:07.263Z,30.50
2018-05-02T19:07:34.839Z,30.67
2018-05-02T19:10:02.448Z,33.83
2018-05-02T19:12:30.090Z,31.23
2018-05-02T19:14:57.909Z,31.77
2018-05-02T19:17:25.517Z,33.20
2018-05-02T19:19:59.767Z,35.07
2018-05-02T19:22:27.533Z,30.93
2018-05-02T19:25:00.806Z,25.83
2018-05-02T19:27:29.004Z,29.30
2018-05-02T19:29:56.565Z,24.27
2018-05-02T19:32:31.393Z,28.43
2018-05-02T19:35:00.284Z,36.50
2018-05-02T19:37:28.254Z,34.23
2018-05-02T19:40:02.253Z,40.23
2018-05-02T19:45:37.520Z,36.43
2018-05-02T19:48:05.101Z,41.47
2018-05-02T19:50:32.718Z,37.87
2018-05-02T19:53:00.631Z,35.30
2018-05-02T19:55:28.385Z,40.13
2018-05-02T19:57:56.316Z,34.37
2018-05-02T20:00:29.509Z,37.97
2018-05-02T20:03:02.767Z,36.00
2018-05-02T20:05:30.602Z,35.53
2018-05-02T20:07:58.180Z,34.47
2018-05-02T20:10:32.936Z,43.07
2018-05-02T20:13:06.184Z,37.80
2018-05-02T20:15:33.881Z,42.53
2018-05-02T20:18:02.345Z,40.17
2018-05-02T20:20:31.022Z,39.47
2018-05-02T20:22:58.609Z,39.67
2018-05-02T20:25:26.208Z,38.20
2018-05-02T20:27:55.519Z,38.80
2018-05-02T20:30:23.146Z,40.33
2018-05-02T20:32:50.871Z,35.07
2018-05-02T20:35:18.511Z,31.70
2018-05-02T20:37:46.089Z,26.87
2018-05-02T20:40:14.416Z,28.40
2018-05-02T20:42:41.989Z,28.60
2018-05-02T20:45:10.045Z,27.93
2018-05-02T20:47:37.685Z,43.80
2018-05-02T20:50:05.263Z,34.53
2018-05-02T20:52:32.861Z,32.53
2018-05-02T20:55:00.592Z,41.83
2018-05-02T20:57:28.028Z,41.83
2018-05-02T20:59:55.644Z,44.23
2018-05-02T21:02:23.208Z,45.90
2018-05-02T21:04:50.778Z,41.77
2018-05-02T21:07:19.133Z,36.33
2018-05-02T21:09:46.947Z,40.13
2018-05-02T21:12:14.657Z,50.43
2018-05-02T21:14:42.605Z,55.17
2018-05-02T21:17:10.186Z,53.70
2018-05-02T21:19:37.945Z,49.57
2018-05-02T21:22:05.550Z,50.97
2018-05-02T21:24:33.138Z,51.40
2018-05-02T21:27:01.080Z,48.23
2018-05-02T21:29:28.935Z,50.33
2018-05-02T21:31:56.493Z,40.80
2018-05-02T21:34:24.266Z,43.03
2018-05-02T21:36:51.884Z,45.30
2018-05-02T21:39:19.476Z,44.37
2018-05-02T21:41:47.073Z,45.03
2018-05-02T21:44:14.724Z,43.60
2018-05-02T21:46:42.938Z,38.93
2018-05-02T21:49:10.530Z,43.90
2018-05-02T21:51:38.144Z,44.70
2018-05-02T21:54:05.693Z,45.43
2018-05-02T21:56:33.451Z,42.00
2018-05-02T21:59:01.104Z,40.30
2018-05-02T22:01:28.660Z,41.33
2018-05-02T22:03:56.472Z,40.50
2018-05-02T22:06:24.824Z,43.17
2018-05-02T22:08:52.379Z,38.97
2018-05-02T22:11:19.995Z,34.83
2018-05-02T22:13:47.596Z,42.87
2018-05-02T22:16:15.373Z,39.13
2018-05-02T22:18:42.930Z,46.57
2018-05-02T22:21:10.724Z,45.83
2018-05-02T22:23:39.052Z,54.60
2018-05-02T22:26:06.624Z,49.57
2018-05-02T22:28:34.494Z,38.17
2018-05-02T22:31:02.358Z,38.23
2018-05-02T22:33:30.994Z,31.60
2018-05-02T22:35:58.610Z,39.50
2018-05-02T22:38:27.389Z,30.17
2018-05-02T22:40:55.137Z,33.03
2018-05-02T22:43:22.904Z,41.23
2018-05-02T22:45:50.956Z,31.20
2018-05-02T22:48:18.513Z,38.73
2018-05-02T22:50:46.123Z,40.07
2018-05-02T22:53:14.735Z,33.40
2018-05-02T22:55:42.397Z,34.00
2018-05-02T22:58:10.230Z,36.97
2018-05-02T23:00:37.791Z,33.47
2018-05-02T23:03:06.294Z,33.73
2018-05-02T23:05:34.132Z,31.07
2018-05-02T23:08:01.688Z,30.30
2018-05-02T23:10:29.367Z,28.40
2018-05-02T23:12:57.248Z,31.97
2018-05-02T23:15:24.798Z,33.93
2018-05-02T23:17:53.386Z,29.67
2018-05-02T23:20:21.031Z,28.97
2018-05-02T23:22:48.795Z,33.23
2018-05-02T23:25:17.212Z,27.83
2018-05-02T23:27:45.109Z,35.10
2018-05-02T23:30:12.725Z,29.07
2018-05-02T23:32:40.788Z,29.50
2018-05-02T23:35:08.709Z,23.27
2018-05-02T23:37:36.313Z,27.00
2018-05-02T23:40:03.869Z,23.90
2018-05-02T23:42:31.616Z,24.07
2018-05-02T23:44:59.352Z,25.33
2018-05-02T23:47:27.012Z,25.57
2018-05-02T23:49:54.596Z,21.50
2018-05-02T23:52:22.143Z,27.23
2018-05-02T23:54:49.958Z,27.23
2018-05-02T23:57:17.684Z,20.70
2018-05-02T23:59:46.003Z,28.87
